Terminal Aerodrome Forecast
Issued by NWS

Home | Current Version | Previous Version | Text Only | Print | Product List | Glossary On
Versions: 1 2 3 4 5 6 7 8 9 10 11 12 13 14 15 16 17 18 19
000
FTUS43 KIND 072300
TAFHUF
TAF
KHUF 072328Z 0800/0824 36010KT P6SM SCT012 OVC025
      TEMPO 0800/0801 -RA OVC012
     FM080100 01008KT P6SM BKN025 OVC040
     FM081100 03007KT 4SM -RA BR BKN007 OVC015
      TEMPO 0812/0815 2SM RA BR
     FM082000 12006KT 4SM -RA BR OVC006=

USA.gov is the U.S. government's official web portal to all federal, state and local government web resources and services.